Time;durP1;ratioP1;P1;durP2;ratioP2;P2;SDS_P1;SDS_P2;PMS_P1;PMS_P2;Temp;Humidity;BMP_temperature;BMP_pressure;BME280_temperature;BME280_humidity;BME280_pressure;Samples;Min_cycle;Max_cycle;Signal;HPM_P1;HPM_P2
2021/12/05 00:23:57;;;;;;;61.20;22.10;;;;;;;;;;4933809;29;20229;-72
2021/12/05 00:26:23;;;;;;;50.40;22.23;;;;;;;;;;4932635;29;20036;-71
2021/12/05 00:29:11;;;;;;;58.80;24.03;;;;;;;;;;4933700;29;20032;-72
2021/12/05 00:43:05;;;;;;;56.37;26.17;;;;;;;;;;4933139;29;20094;-72
2021/12/05 00:50:40;;;;;;;56.33;24.43;;;;;;;;;;4933359;29;20038;-72
2021/12/05 01:06:32;;;;;;;59.93;24.10;;;;;;;;;;4933095;29;20051;-72
2021/12/05 01:11:32;;;;;;;61.63;26.93;;;;;;;;;;4932781;29;20123;-72
2021/12/05 01:16:44;;;;;;;68.00;26.63;;;;;;;;;;4932887;29;20039;-72
2021/12/05 01:19:12;;;;;;;61.03;27.00;;;;;;;;;;4932634;29;20038;-72
2021/12/05 01:21:40;;;;;;;56.67;23.87;;;;;;;;;;4931833;29;20369;-71
2021/12/05 01:24:21;;;;;;;56.77;25.23;;;;;;;;;;4932387;29;20388;-70
2021/12/05 01:32:28;;;;;;;66.53;26.97;;;;;;;;;;4932343;29;20400;-72
2021/12/05 01:35:22;;;;;;;66.97;25.67;;;;;;;;;;4931795;29;20094;-72
2021/12/05 01:46:33;;;;;;;55.80;24.27;;;;;;;;;;4932428;29;20036;-71
2021/12/05 02:10:40;;;;;;;52.87;18.80;;;;;;;;;;4932046;29;20082;-75
2021/12/05 02:34:46;;;;;;;40.73;16.33;;;;;;;;;;4933279;29;20170;-71
2021/12/05 02:40:09;;;;;;;37.73;15.00;;;;;;;;;;4935510;29;20468;-71
2021/12/05 02:42:47;;;;;;;40.17;15.90;;;;;;;;;;4935321;29;20027;-72
2021/12/05 02:45:12;;;;;;;45.10;16.57;;;;;;;;;;4934090;29;20114;-73
2021/12/05 02:47:41;;;;;;;46.17;16.33;;;;;;;;;;4933891;29;20106;-73
2021/12/05 02:50:10;;;;;;;43.50;16.63;;;;;;;;;;4933886;29;20039;-73
2021/12/05 02:52:39;;;;;;;45.47;18.23;;;;;;;;;;4935479;29;20261;-71
2021/12/05 02:55:13;;;;;;;44.13;15.57;;;;;;;;;;4935191;29;20027;-73
2021/12/05 03:00:12;;;;;;;43.23;16.00;;;;;;;;;;4935436;29;20040;-73
2021/12/05 03:02:41;;;;;;;47.57;16.93;;;;;;;;;;4933871;29;20043;-72
2021/12/05 03:05:11;;;;;;;43.73;15.97;;;;;;;;;;4934970;29;20031;-72
2021/12/05 03:07:40;;;;;;;42.97;15.83;;;;;;;;;;4934765;29;20032;-72
2021/12/05 03:10:09;;;;;;;38.87;15.83;;;;;;;;;;4933749;29;20153;-72
2021/12/05 03:12:36;;;;;;;49.53;17.03;;;;;;;;;;4934916;29;20507;-71
2021/12/05 03:15:08;;;;;;;43.70;16.87;;;;;;;;;;4934380;29;20028;-71
2021/12/05 03:17:34;;;;;;;41.25;14.40;;;;;;;;;;4933782;29;20027;-72
2021/12/05 03:19:59;;;;;;;37.07;14.87;;;;;;;;;;4934373;29;20603;-72
2021/12/05 03:22:25;;;;;;;40.17;14.30;;;;;;;;;;4933310;29;20035;-71
2021/12/05 03:24:51;;;;;;;42.57;14.40;;;;;;;;;;4932996;29;20023;-72
2021/12/05 03:27:17;;;;;;;34.57;14.27;;;;;;;;;;4934953;29;20074;-72
2021/12/05 03:29:43;;;;;;;29.73;13.50;;;;;;;;;;4933250;29;20095;-72
2021/12/05 03:32:09;;;;;;;29.30;12.90;;;;;;;;;;4934560;29;20032;-72
2021/12/05 03:34:34;;;;;;;29.90;13.03;;;;;;;;;;4932933;29;20044;-71
2021/12/05 03:37:01;;;;;;;28.07;11.90;;;;;;;;;;4934319;29;20107;-72
2021/12/05 03:39:28;;;;;;;34.77;13.17;;;;;;;;;;4932952;29;20070;-70
2021/12/05 03:41:55;;;;;;;32.80;12.87;;;;;;;;;;4934217;29;20103;-71
2021/12/05 03:44:24;;;;;;;28.83;11.87;;;;;;;;;;4932578;29;20028;-71
2021/12/05 03:46:52;;;;;;;22.83;10.80;;;;;;;;;;4932634;29;20126;-71
2021/12/05 03:49:18;;;;;;;31.13;12.17;;;;;;;;;;4933422;29;20042;-72
2021/12/05 03:51:58;;;;;;;29.70;11.37;;;;;;;;;;4932831;29;20126;-72
2021/12/05 03:54:24;;;;;;;27.47;11.17;;;;;;;;;;4934287;29;20035;-73
2021/12/05 03:56:50;;;;;;;24.33;10.87;;;;;;;;;;4932700;29;20042;-71
2021/12/05 03:59:17;;;;;;;25.60;10.53;;;;;;;;;;4932843;29;20036;-72
2021/12/05 04:01:44;;;;;;;33.70;12.03;;;;;;;;;;4933725;29;20515;-72
2021/12/05 04:04:10;;;;;;;28.03;11.27;;;;;;;;;;4932592;29;20031;-71
2021/12/05 04:06:36;;;;;;;28.00;11.60;;;;;;;;;;4932580;29;20043;-71
2021/12/05 04:09:06;;;;;;;27.60;11.23;;;;;;;;;;4933771;29;20028;-71
2021/12/05 04:11:37;;;;;;;25.13;10.20;;;;;;;;;;4933942;29;20035;-72
2021/12/05 04:14:10;;;;;;;26.27;10.95;;;;;;;;;;4932275;29;20452;-71
2021/12/05 04:16:36;;;;;;;26.17;10.20;;;;;;;;;;4933774;29;20059;-71
2021/12/05 04:19:03;;;;;;;23.83;10.87;;;;;;;;;;4933780;29;20031;-71
2021/12/05 04:21:31;;;;;;;23.73;10.70;;;;;;;;;;4933835;29;20031;-71
2021/12/05 04:23:58;;;;;;;22.20;8.97;;;;;;;;;;4932071;29;20027;-71
2021/12/05 04:26:25;;;;;;;23.97;10.30;;;;;;;;;;4933741;29;20337;-72
2021/12/05 04:28:50;;;;;;;23.80;9.70;;;;;;;;;;4931906;29;20046;-72
2021/12/05 04:31:20;;;;;;;24.00;9.90;;;;;;;;;;4933614;29;20365;-72
2021/12/05 04:33:46;;;;;;;18.87;8.97;;;;;;;;;;4933780;29;20032;-72
2021/12/05 04:36:12;;;;;;;20.50;9.47;;;;;;;;;;4931900;29;20051;-71
2021/12/05 04:38:37;;;;;;;15.27;7.73;;;;;;;;;;4931957;29;20433;-73
2021/12/05 04:41:04;;;;;;;20.87;8.67;;;;;;;;;;4933219;29;20184;-73
2021/12/05 04:43:39;;;;;;;21.40;9.27;;;;;;;;;;4933164;29;20031;-72
2021/12/05 04:46:17;;;;;;;16.37;7.77;;;;;;;;;;4931886;29;20528;-71
2021/12/05 04:48:47;;;;;;;17.83;9.57;;;;;;;;;;4933129;29;20027;-72
2021/12/05 04:51:13;;;;;;;18.27;8.37;;;;;;;;;;4931733;29;20083;-72
2021/12/05 04:53:39;;;;;;;17.33;7.90;;;;;;;;;;4931693;29;20032;-72
2021/12/05 04:56:05;;;;;;;20.33;8.20;;;;;;;;;;4931435;29;20434;-72
2021/12/05 04:58:31;;;;;;;20.60;8.67;;;;;;;;;;4932819;29;20031;-73
2021/12/05 05:00:57;;;;;;;14.70;7.37;;;;;;;;;;4933000;29;20396;-70
2021/12/05 05:03:24;;;;;;;19.27;9.33;;;;;;;;;;4931571;29;20016;-72
2021/12/05 05:05:57;;;;;;;17.53;8.77;;;;;;;;;;4932685;29;20099;-72
2021/12/05 05:08:25;;;;;;;14.60;8.00;;;;;;;;;;4931470;29;20051;-72
2021/12/05 05:10:51;;;;;;;14.93;7.17;;;;;;;;;;4932644;29;20019;-71
2021/12/05 05:13:17;;;;;;;15.40;7.47;;;;;;;;;;4932892;29;20028;-71
2021/12/05 05:15:43;;;;;;;15.57;8.10;;;;;;;;;;4931187;29;20024;-70
2021/12/05 05:18:10;;;;;;;16.90;7.97;;;;;;;;;;4932569;29;20035;-71
2021/12/05 05:20:42;;;;;;;14.77;7.83;;;;;;;;;;4932563;29;20094;-72
2021/12/05 05:23:30;;;;;;;16.33;7.72;;;;;;;;;;4932497;29;20031;-72
2021/12/05 05:26:30;;;;;;;15.47;7.57;;;;;;;;;;4931076;29;20039;-71
2021/12/05 05:50:16;;;;;;;15.93;8.03;;;;;;;;;;4932532;29;20031;-72
2021/12/05 05:52:42;;;;;;;15.17;7.80;;;;;;;;;;4932248;29;20035;-72
2021/12/05 05:55:10;;;;;;;13.33;7.33;;;;;;;;;;4931873;29;20079;-73
2021/12/05 05:57:56;;;;;;;15.20;7.07;;;;;;;;;;4932016;29;20432;-71
2021/12/05 06:00:37;;;;;;;19.57;7.23;;;;;;;;;;4930959;29;20348;-71
2021/12/05 06:03:22;;;;;;;16.37;7.37;;;;;;;;;;4931032;29;20092;-71
2021/12/05 06:05:52;;;;;;;12.97;7.10;;;;;;;;;;4932108;29;20031;-70
2021/12/05 06:08:22;;;;;;;14.07;7.07;;;;;;;;;;4931972;29;20024;-73
2021/12/05 06:10:48;;;;;;;15.27;6.50;;;;;;;;;;4935900;29;20042;-71
2021/12/05 06:13:16;;;;;;;13.33;6.70;;;;;;;;;;4934342;29;20028;-72
2021/12/05 06:15:42;;;;;;;18.70;7.60;;;;;;;;;;4935696;29;20464;-72
2021/12/05 06:18:07;;;;;;;14.07;7.40;;;;;;;;;;4935440;29;20031;-73
2021/12/05 06:20:33;;;;;;;15.97;7.37;;;;;;;;;;4935859;29;20110;-72
2021/12/05 06:22:59;;;;;;;17.67;7.43;;;;;;;;;;4935539;29;20515;-71
2021/12/05 06:25:27;;;;;;;16.73;6.93;;;;;;;;;;4935605;29;20048;-72
2021/12/05 06:27:56;;;;;;;13.17;5.87;;;;;;;;;;4934090;29;20055;-72
2021/12/05 06:46:39;;;;;;;15.13;7.47;;;;;;;;;;4935493;29;20039;-72
2021/12/05 06:49:05;;;;;;;15.43;7.43;;;;;;;;;;4934018;29;20031;-71
2021/12/05 06:51:30;;;;;;;16.57;8.07;;;;;;;;;;4935446;29;20042;-72
2021/12/05 06:53:58;;;;;;;18.47;7.60;;;;;;;;;;4933557;29;20040;-72
2021/12/05 06:56:24;;;;;;;18.13;6.93;;;;;;;;;;4933746;29;20042;-73
2021/12/05 06:58:50;;;;;;;13.83;7.67;;;;;;;;;;4935184;29;20032;-72
2021/12/05 07:01:16;;;;;;;14.70;7.57;;;;;;;;;;4934922;29;20432;-72
2021/12/05 07:03:45;;;;;;;14.73;7.00;;;;;;;;;;4933866;29;20047;-72
2021/12/05 07:06:21;;;;;;;14.10;7.20;;;;;;;;;;4934759;29;20024;-72
2021/12/05 07:08:48;;;;;;;26.87;8.03;;;;;;;;;;4933804;29;20047;-72
2021/12/05 07:11:25;;;;;;;13.00;6.80;;;;;;;;;;4933398;29;20504;-72
2021/12/05 07:43:06;;;;;;;17.53;7.87;;;;;;;;;;4934601;29;20046;-72
2021/12/05 07:45:41;;;;;;;19.00;8.10;;;;;;;;;;4933017;29;20122;-72
2021/12/05 07:48:19;;;;;;;24.27;7.63;;;;;;;;;;4934055;29;20043;-72
2021/12/05 07:51:25;;;;;;;13.53;6.77;;;;;;;;;;4934280;29;20060;-71
2021/12/05 08:15:46;;;;;;;21.93;7.77;;;;;;;;;;4934037;29;20114;-73
2021/12/05 08:18:12;;;;;;;16.30;5.93;;;;;;;;;;4931983;29;20477;-72
2021/12/05 08:20:40;;;;;;;19.20;7.33;;;;;;;;;;4932643;29;20030;-71
2021/12/05 08:23:07;;;;;;;16.77;6.83;;;;;;;;;;4932035;29;20384;-72
2021/12/05 08:25:36;;;;;;;18.70;7.30;;;;;;;;;;4933447;29;20023;-73
2021/12/05 08:28:38;;;;;;;17.47;7.30;;;;;;;;;;4931980;29;20042;-74
2021/12/05 08:31:11;;;;;;;17.70;7.13;;;;;;;;;;4930774;29;20036;-73
2021/12/05 08:33:52;;;;;;;16.07;6.70;;;;;;;;;;4933622;29;20154;-72
2021/12/05 09:28:38;;;;;;;13.93;5.57;;;;;;;;;;4932557;29;20107;-71
2021/12/05 09:31:28;;;;;;;;;;;;;;;;;;4933100;29;20048;-74
2021/12/05 10:14:33;;;;;;;17.33;4.70;;;;;;;;;;4931570;29;20159;-72
2021/12/05 10:38:28;;;;;;;18.70;6.30;;;;;;;;;;4931846;29;20051;-73
2021/12/05 10:41:22;;;;;;;13.90;5.50;;;;;;;;;;4930694;29;20042;-72
2021/12/05 10:43:53;;;;;;;15.47;5.43;;;;;;;;;;4930367;29;20040;-72
2021/12/05 10:46:22;;;;;;;14.88;5.72;;;;;;;;;;4931792;29;20051;-72
2021/12/05 10:49:10;;;;;;;16.87;5.47;;;;;;;;;;4915020;29;20047;-72
2021/12/05 10:51:38;;;;;;;16.47;6.00;;;;;;;;;;4931909;29;20030;-73
2021/12/05 10:54:09;;;;;;;16.20;5.47;;;;;;;;;;4931553;29;20032;-72
2021/12/05 10:56:35;;;;;;;14.00;5.35;;;;;;;;;;4934809;29;20476;-71
2021/12/05 10:59:13;;;;;;;23.40;5.80;;;;;;;;;;4934986;29;20107;-73
2021/12/05 11:01:54;;;;;;;12.00;6.07;;;;;;;;;;4933475;29;20043;-72
2021/12/05 11:04:33;;;;;;;15.70;5.20;;;;;;;;;;4933298;29;20480;-72
2021/12/05 11:07:05;;;;;;;16.80;4.87;;;;;;;;;;4933751;29;20496;-73
2021/12/05 11:09:36;;;;;;;14.18;5.80;;;;;;;;;;4933541;29;20028;-72
2021/12/05 11:12:11;;;;;;;16.42;5.82;;;;;;;;;;4933777;29;20028;-72
2021/12/05 11:14:49;;;;;;;12.80;4.90;;;;;;;;;;4933601;29;20173;-72
2021/12/05 11:17:18;;;;;;;19.33;5.93;;;;;;;;;;4934406;29;20028;-72
2021/12/05 11:19:47;;;;;;;14.43;6.03;;;;;;;;;;4933417;29;20027;-71
2021/12/05 11:22:26;;;;;;;14.33;6.33;;;;;;;;;;4934442;29;20427;-70
2021/12/05 11:24:55;;;;;;;9.47;5.27;;;;;;;;;;4933220;29;20019;-72
2021/12/05 11:27:31;;;;;;;11.70;5.27;;;;;;;;;;4932963;29;20134;-73
2021/12/05 11:30:03;;;;;;;12.93;5.67;;;;;;;;;;4933305;29;20031;-72
2021/12/05 11:32:37;;;;;;;;;;;;;;;;;;4933785;29;20032;-73
2021/12/05 11:35:25;;;;;;;14.73;4.67;;;;;;;;;;4933998;29;19918;-71
2021/12/05 11:37:56;;;;;;;8.83;4.93;;;;;;;;;;4934322;29;20066;-72
2021/12/05 11:40:25;;;;;;;13.83;4.73;;;;;;;;;;4934271;29;20026;-73
2021/12/05 11:43:00;;;;;;;12.97;5.53;;;;;;;;;;4934543;29;20539;-73
2021/12/05 11:45:26;;;;;;;10.80;4.53;;;;;;;;;;4932827;29;20083;-71
2021/12/05 11:47:53;;;;;;;14.47;4.90;;;;;;;;;;4934917;29;20034;-71
2021/12/05 11:50:32;;;;;;;13.43;5.03;;;;;;;;;;4934610;29;20116;-73
2021/12/05 11:52:58;;;;;;;12.33;5.13;;;;;;;;;;4934349;29;20052;-72
2021/12/05 11:55:27;;;;;;;14.77;6.27;;;;;;;;;;4935091;29;20507;-72
2021/12/05 11:57:53;;;;;;;15.07;5.13;;;;;;;;;;4932823;29;20036;-72
2021/12/05 12:00:22;;;;;;;13.40;5.33;;;;;;;;;;4933573;29;20089;-73
2021/12/05 12:02:49;;;;;;;16.27;5.13;;;;;;;;;;4932386;29;20599;-73
2021/12/05 12:05:31;;;;;;;11.50;4.83;;;;;;;;;;4931997;29;20329;-72
2021/12/05 12:08:15;;;;;;;;;;;;;;;;;;4934379;29;20101;-72
2021/12/05 12:10:48;;;;;;;11.27;4.90;;;;;;;;;;4932360;29;20030;-72
2021/12/05 12:13:19;;;;;;;7.50;4.57;;;;;;;;;;4933486;29;20042;-71
2021/12/05 12:15:57;;;;;;;16.50;6.07;;;;;;;;;;4932084;29;20036;-73
2021/12/05 12:18:28;;;;;;;10.07;5.13;;;;;;;;;;4933382;29;20369;-73
2021/12/05 12:20:55;;;;;;;10.13;4.70;;;;;;;;;;4932582;29;20036;-72
2021/12/05 12:23:23;;;;;;;8.87;5.80;;;;;;;;;;4933246;29;20114;-71
2021/12/05 12:25:55;;;;;;;15.40;5.63;;;;;;;;;;4933497;29;20059;-71
2021/12/05 12:28:21;;;;;;;18.88;5.80;;;;;;;;;;4916557;29;20035;-72
2021/12/05 12:31:00;;;;;;;11.10;4.40;;;;;;;;;;4933277;29;20393;-72
2021/12/05 12:33:34;;;;;;;13.23;6.00;;;;;;;;;;4931797;29;20055;-73
2021/12/05 12:36:00;;;;;;;9.57;5.13;;;;;;;;;;4932003;29;20082;-72
2021/12/05 12:38:39;;;;;;;10.50;4.73;;;;;;;;;;4933071;29;20035;-73
2021/12/05 12:41:22;;;;;;;14.47;5.33;;;;;;;;;;4933555;29;20438;-72
2021/12/05 12:43:53;;;;;;;9.43;4.10;;;;;;;;;;4933804;29;20019;-72
2021/12/05 12:46:31;;;;;;;9.47;5.07;;;;;;;;;;4932924;29;20038;-70
2021/12/05 12:49:22;;;;;;;12.67;5.03;;;;;;;;;;4931855;29;20289;-73
2021/12/05 12:52:11;;;;;;;17.07;7.27;;;;;;;;;;4933146;29;20083;-73
2021/12/05 12:54:55;;;;;;;13.03;5.50;;;;;;;;;;4931473;29;20050;-72
2021/12/05 12:57:33;;;;;;;11.87;4.63;;;;;;;;;;4932929;29;20035;-73
2021/12/05 13:00:12;;;;;;;13.97;5.00;;;;;;;;;;4931517;29;20423;-71
2021/12/05 13:11:05;;;;;;;12.33;5.10;;;;;;;;;;4932876;29;20126;-73
2021/12/05 13:13:33;;;;;;;16.67;5.27;;;;;;;;;;4932695;29;20028;-72
2021/12/05 13:16:22;;;;;;;13.30;5.33;;;;;;;;;;4931171;29;20314;-73
2021/12/05 13:18:55;;;;;;;35.80;6.90;;;;;;;;;;4946009;28;20039;-73
2021/12/05 13:21:38;;;;;;;24.13;6.80;;;;;;;;;;4932079;29;20066;-72
2021/12/05 13:24:26;;;;;;;21.13;7.13;;;;;;;;;;4932149;29;20039;-72
2021/12/05 13:27:02;;;;;;;17.23;6.47;;;;;;;;;;4932755;29;20028;-72
2021/12/05 13:29:34;;;;;;;12.87;6.33;;;;;;;;;;4930691;29;20058;-71
2021/12/05 13:32:08;;;;;;;18.50;8.98;;;;;;;;;;4932489;29;20035;-71
2021/12/05 13:34:47;;;;;;;19.93;7.03;;;;;;;;;;4931562;29;20663;-71
2021/12/05 13:37:13;;;;;;;20.60;8.83;;;;;;;;;;4930953;29;20039;-71
2021/12/05 13:39:43;;;;;;;20.07;7.90;;;;;;;;;;4930295;29;20136;-72
2021/12/05 13:42:45;;;;;;;15.50;5.77;;;;;;;;;;4931719;29;20047;-72
2021/12/05 13:45:41;;;;;;;20.63;6.53;;;;;;;;;;4932187;29;20024;-71
2021/12/05 13:48:18;;;;;;;15.50;5.83;;;;;;;;;;4932353;28;20142;-71
2021/12/05 13:50:51;;;;;;;22.23;6.23;;;;;;;;;;4930595;29;20113;-72
2021/12/05 13:53:20;;;;;;;23.63;5.50;;;;;;;;;;4929992;29;20034;-74
2021/12/05 13:55:53;;;;;;;17.93;5.80;;;;;;;;;;4914717;29;20028;-73
2021/12/05 13:58:35;;;;;;;18.77;6.80;;;;;;;;;;4930542;29;20468;-72
2021/12/05 14:01:15;;;;;;;15.27;6.65;;;;;;;;;;4933703;29;20066;-72
2021/12/05 14:03:56;;;;;;;32.43;7.97;;;;;;;;;;4931341;29;20074;-72
2021/12/05 14:06:40;;;;;;;15.83;6.20;;;;;;;;;;4931271;29;20023;-71
2021/12/05 14:09:20;;;;;;;13.23;5.33;;;;;;;;;;4931793;29;20034;-72
2021/12/05 14:12:18;;;;;;;11.80;5.03;;;;;;;;;;4930852;29;20099;-73
2021/12/05 14:14:50;;;;;;;19.57;10.03;;;;;;;;;;4930423;29;20039;-72
2021/12/05 14:17:21;;;;;;;16.20;6.30;;;;;;;;;;4932027;29;20114;-72
2021/12/05 14:19:50;;;;;;;19.03;6.97;;;;;;;;;;4932066;29;20035;-71
2021/12/05 14:22:18;;;;;;;19.77;6.63;;;;;;;;;;4931813;29;20059;-71
2021/12/05 14:24:48;;;;;;;13.63;6.40;;;;;;;;;;4931634;29;20073;-72
2021/12/05 14:27:18;;;;;;;17.13;8.83;;;;;;;;;;4930468;29;20051;-72
2021/12/05 14:29:46;;;;;;;18.50;8.67;;;;;;;;;;4932157;29;20035;-71
2021/12/05 14:32:29;;;;;;;22.43;7.57;;;;;;;;;;4934064;29;20035;-73
2021/12/05 14:35:02;;;;;;;24.13;9.80;;;;;;;;;;4933644;29;20043;-74
2021/12/05 14:37:33;;;;;;;18.83;6.83;;;;;;;;;;4933596;29;20031;-71
2021/12/05 14:40:03;;;;;;;27.00;8.40;;;;;;;;;;4919337;29;20035;-73
2021/12/05 14:42:32;;;;;;;17.30;6.87;;;;;;;;;;4933764;29;20031;-72
2021/12/05 14:45:10;;;;;;;17.50;6.80;;;;;;;;;;4935245;29;20048;-72
2021/12/05 14:47:36;;;;;;;20.53;6.27;;;;;;;;;;4935230;29;20333;-72
2021/12/05 14:50:11;;;;;;;15.00;7.87;;;;;;;;;;4933835;29;20038;-72
2021/12/05 14:52:40;;;;;;;12.77;6.67;;;;;;;;;;4933477;29;20038;-72
2021/12/05 14:55:08;;;;;;;15.50;6.13;;;;;;;;;;4933979;29;20024;-73
2021/12/05 14:57:46;;;;;;;20.27;7.13;;;;;;;;;;4935111;29;20141;-72
2021/12/05 15:00:18;;;;;;;19.50;6.80;;;;;;;;;;4934089;29;20038;-72
2021/12/05 15:02:44;;;;;;;24.30;7.93;;;;;;;;;;4933426;29;20146;-72
2021/12/05 15:05:17;;;;;;;15.83;6.40;;;;;;;;;;4933531;29;20532;-71
2021/12/05 15:07:44;;;;;;;24.57;7.00;;;;;;;;;;4933187;29;20059;-71
2021/12/05 15:10:11;;;;;;;20.33;8.03;;;;;;;;;;4934880;29;20107;-70
2021/12/05 15:12:37;;;;;;;18.93;7.63;;;;;;;;;;4935000;29;20031;-72
2021/12/05 15:15:12;;;;;;;11.97;5.63;;;;;;;;;;4933211;29;20627;-72
2021/12/05 15:17:40;;;;;;;33.07;11.80;;;;;;;;;;4934609;29;20059;-72
2021/12/05 15:20:10;;;;;;;21.97;8.83;;;;;;;;;;4934851;29;20032;-71
2021/12/05 15:22:36;;;;;;;33.27;9.17;;;;;;;;;;4933422;29;20023;-73
2021/12/05 15:25:16;;;;;;;22.77;9.43;;;;;;;;;;4934746;29;20388;-73
2021/12/05 15:27:44;;;;;;;16.30;9.27;;;;;;;;;;4934674;29;20027;-72
2021/12/05 15:30:26;;;;;;;20.63;9.53;;;;;;;;;;4933428;29;20503;-72
2021/12/05 15:33:07;;;;;;;41.58;14.95;;;;;;;;;;4933441;29;20028;-72
2021/12/05 15:35:34;;;;;;;30.85;7.90;;;;;;;;;;4934143;29;20515;-73
2021/12/05 15:38:23;;;;;;;23.20;9.50;;;;;;;;;;4934625;29;20039;-72
2021/12/05 15:40:52;;;;;;;12.63;7.57;;;;;;;;;;4932578;29;20396;-73
2021/12/05 15:43:22;;;;;;;19.40;8.17;;;;;;;;;;4917328;29;20035;-73
2021/12/05 15:45:50;;;;;;;17.73;8.30;;;;;;;;;;4932896;29;20054;-73
2021/12/05 15:48:31;;;;;;;23.37;7.97;;;;;;;;;;4932808;29;20032;-74
2021/12/05 15:50:58;;;;;;;20.55;8.80;;;;;;;;;;4934000;29;20039;-72
2021/12/05 15:53:25;;;;;;;22.13;7.77;;;;;;;;;;4932332;29;20555;-75
2021/12/05 15:56:00;;;;;;;15.37;8.13;;;;;;;;;;4933948;29;20032;-72
2021/12/05 15:58:32;;;;;;;28.90;9.10;;;;;;;;;;4933745;29;20110;-72
2021/12/05 16:01:01;;;;;;;20.40;7.75;;;;;;;;;;4933900;29;20519;-71
2021/12/05 16:03:45;;;;;;;19.73;7.60;;;;;;;;;;4932298;29;20047;-71
2021/12/05 16:06:14;;;;;;;21.10;9.23;;;;;;;;;;4932635;29;20040;-72
2021/12/05 16:08:40;;;;;;;26.47;8.03;;;;;;;;;;4932097;29;20031;-72
2021/12/05 16:11:15;;;;;;;17.47;7.90;;;;;;;;;;4932595;29;20042;-73
2021/12/05 16:13:43;;;;;;;28.00;9.40;;;;;;;;;;4933842;29;20380;-71
2021/12/05 16:16:19;;;;;;;23.10;9.47;;;;;;;;;;4933581;29;20074;-72
2021/12/05 16:18:51;;;;;;;20.60;9.57;;;;;;;;;;4932230;29;20125;-71
2021/12/05 16:21:21;;;;;;;25.60;9.75;;;;;;;;;;4932397;29;20560;-70
2021/12/05 16:23:49;;;;;;;22.93;9.23;;;;;;;;;;4933889;29;20032;-73
2021/12/05 16:26:26;;;;;;;28.00;8.77;;;;;;;;;;4932457;29;20055;-72
2021/12/05 16:29:01;;;;;;;19.80;9.00;;;;;;;;;;4932092;29;20495;-72
2021/12/05 16:31:40;;;;;;;35.80;11.90;;;;;;;;;;4932229;29;20030;-71
2021/12/05 16:34:23;;;;;;;21.37;8.43;;;;;;;;;;4933435;29;20841;-73
2021/12/05 16:36:56;;;;;;;22.83;8.63;;;;;;;;;;4932176;29;20356;-71
2021/12/05 16:39:36;;;;;;;19.80;12.13;;;;;;;;;;4933939;29;20038;-72
2021/12/05 16:42:22;;;;;;;23.77;8.40;;;;;;;;;;4932124;29;20040;-72
2021/12/05 16:44:51;;;;;;;33.30;12.20;;;;;;;;;;4933268;29;20683;-71
2021/12/05 16:47:20;;;;;;;26.83;10.77;;;;;;;;;;4931942;29;20035;-72
2021/12/05 16:49:49;;;;;;;25.43;11.03;;;;;;;;;;4933037;29;20028;-72
2021/12/05 16:52:22;;;;;;;23.07;8.33;;;;;;;;;;4932668;29;20052;-72
2021/12/05 16:54:51;;;;;;;22.07;9.60;;;;;;;;;;4932610;29;20098;-71
2021/12/05 16:57:27;;;;;;;16.73;8.53;;;;;;;;;;4932122;29;20042;-72
2021/12/05 16:59:57;;;;;;;26.43;7.87;;;;;;;;;;4933361;29;20370;-72
2021/12/05 17:02:51;;;;;;;20.90;7.63;;;;;;;;;;4931730;29;20027;-73
2021/12/05 17:05:18;;;;;;;27.13;9.77;;;;;;;;;;4932074;29;20032;-73
2021/12/05 17:10:36;;;;;;;19.57;8.43;;;;;;;;;;4933010;29;20028;-71
2021/12/05 17:13:08;;;;;;;19.50;8.77;;;;;;;;;;4932807;29;20027;-72
2021/12/05 17:15:45;;;;;;;18.73;8.82;;;;;;;;;;4931213;29;20034;-71
2021/12/05 17:18:28;;;;;;;20.57;8.60;;;;;;;;;;4931136;29;20043;-72
2021/12/05 17:21:08;;;;;;;20.37;8.13;;;;;;;;;;4931206;29;20114;-72
2021/12/05 17:23:36;;;;;;;19.57;9.60;;;;;;;;;;4932588;29;20038;-71
2021/12/05 17:26:21;;;;;;;25.90;9.13;;;;;;;;;;4931368;29;20090;-73
2021/12/05 17:28:48;;;;;;;19.70;9.00;;;;;;;;;;4931444;29;20043;-74
2021/12/05 17:31:17;;;;;;;28.93;9.97;;;;;;;;;;4931552;29;20039;-71
2021/12/05 17:33:50;;;;;;;25.13;9.23;;;;;;;;;;4946859;29;20035;-72
2021/12/05 17:36:21;;;;;;;30.23;10.27;;;;;;;;;;4932384;29;20055;-71
2021/12/05 17:38:49;;;;;;;27.43;10.57;;;;;;;;;;4932432;29;20547;-71
2021/12/05 17:41:15;;;;;;;41.37;13.53;;;;;;;;;;4932499;29;20465;-71
2021/12/05 17:43:45;;;;;;;23.13;10.63;;;;;;;;;;4930952;29;20051;-71
2021/12/05 17:46:11;;;;;;;28.17;9.60;;;;;;;;;;4932478;29;20028;-73
2021/12/05 17:48:37;;;;;;;22.40;10.40;;;;;;;;;;4932012;29;20038;-73
2021/12/05 17:51:05;;;;;;;19.30;9.10;;;;;;;;;;4932360;29;20388;-72
2021/12/05 17:53:35;;;;;;;27.40;10.27;;;;;;;;;;4930355;29;20039;-72
2021/12/05 17:56:08;;;;;;;28.33;11.10;;;;;;;;;;4930865;29;20035;-72
2021/12/05 17:58:53;;;;;;;26.07;10.83;;;;;;;;;;4930658;29;20028;-71
2021/12/05 18:04:06;;;;;;;30.57;11.77;;;;;;;;;;4951214;28;20055;-71
2021/12/05 18:06:32;;;;;;;28.27;12.23;;;;;;;;;;4934516;29;20095;-73
2021/12/05 18:08:58;;;;;;;27.70;12.47;;;;;;;;;;4934459;29;20027;-71
2021/12/05 18:11:25;;;;;;;29.47;12.53;;;;;;;;;;4935949;29;20035;-73
2021/12/05 18:13:56;;;;;;;42.10;14.90;;;;;;;;;;4935765;29;20110;-73
2021/12/05 18:16:24;;;;;;;34.03;13.70;;;;;;;;;;4934402;29;20032;-72
2021/12/05 18:18:53;;;;;;;32.77;13.70;;;;;;;;;;4934398;29;20063;-72
2021/12/05 18:21:20;;;;;;;32.50;13.33;;;;;;;;;;4934490;29;20388;-72
2021/12/05 18:23:47;;;;;;;56.53;21.60;;;;;;;;;;4936112;29;20035;-71
2021/12/05 18:26:13;;;;;;;31.03;16.00;;;;;;;;;;4936631;29;20048;-71
2021/12/05 18:28:39;;;;;;;33.13;14.53;;;;;;;;;;4937026;29;20035;-72
2021/12/05 18:31:08;;;;;;;34.67;13.83;;;;;;;;;;4934762;29;20031;-71
2021/12/05 18:33:35;;;;;;;30.37;14.90;;;;;;;;;;4933943;29;20055;-70
2021/12/05 18:36:02;;;;;;;44.00;17.50;;;;;;;;;;4935606;29;20122;-73
2021/12/05 18:38:28;;;;;;;43.50;17.93;;;;;;;;;;4934643;29;20039;-73
2021/12/05 18:40:58;;;;;;;33.47;13.07;;;;;;;;;;4933927;29;20126;-73
2021/12/05 18:43:28;;;;;;;44.00;15.20;;;;;;;;;;4934846;29;20130;-72
2021/12/05 18:45:55;;;;;;;41.87;15.93;;;;;;;;;;4933993;29;20035;-72
2021/12/05 18:48:21;;;;;;;49.77;16.67;;;;;;;;;;4935452;29;20028;-71
2021/12/05 18:50:50;;;;;;;48.40;15.77;;;;;;;;;;4935268;29;20468;-74
2021/12/05 18:53:17;;;;;;;44.00;15.93;;;;;;;;;;4935628;29;20036;-71
2021/12/05 18:55:43;;;;;;;37.33;15.33;;;;;;;;;;4935236;29;20032;-72
2021/12/05 18:58:10;;;;;;;39.43;17.97;;;;;;;;;;4933957;29;20054;-73
2021/12/05 19:06:26;;;;;;;40.77;17.20;;;;;;;;;;4935446;29;20099;-72
2021/12/05 19:14:07;;;;;;;47.20;18.97;;;;;;;;;;4935136;29;20127;-72
2021/12/05 19:16:33;;;;;;;45.43;19.03;;;;;;;;;;4932472;29;20134;-73
2021/12/05 19:19:01;;;;;;;41.90;17.87;;;;;;;;;;4933162;29;20531;-73
2021/12/05 19:21:27;;;;;;;50.57;20.97;;;;;;;;;;4933658;29;20023;-72
2021/12/05 19:23:53;;;;;;;42.37;16.13;;;;;;;;;;4933730;29;20436;-73
2021/12/05 19:26:18;;;;;;;40.10;15.13;;;;;;;;;;4933546;29;20051;-72
2021/12/05 19:28:44;;;;;;;45.10;17.60;;;;;;;;;;4933395;29;20059;-72
2021/12/05 19:31:10;;;;;;;38.40;14.67;;;;;;;;;;4934846;29;20028;-70
2021/12/05 19:33:35;;;;;;;40.87;13.37;;;;;;;;;;4934751;29;20465;-71
2021/12/05 19:36:03;;;;;;;40.13;14.57;;;;;;;;;;4932754;29;20063;-72
2021/12/05 19:38:29;;;;;;;28.13;11.47;;;;;;;;;;4933351;29;20043;-72
2021/12/05 19:41:00;;;;;;;25.40;11.73;;;;;;;;;;4934221;29;20035;-72
2021/12/05 19:43:29;;;;;;;31.53;12.40;;;;;;;;;;4933124;29;20554;-73
2021/12/05 19:45:57;;;;;;;26.73;11.07;;;;;;;;;;4934248;29;20019;-72
2021/12/05 19:48:23;;;;;;;31.83;12.37;;;;;;;;;;4932952;29;20075;-72
2021/12/05 19:50:50;;;;;;;27.63;11.33;;;;;;;;;;4934093;29;20362;-71
2021/12/05 19:53:17;;;;;;;26.97;13.60;;;;;;;;;;4932772;29;20034;-71
2021/12/05 19:55:47;;;;;;;32.20;11.87;;;;;;;;;;4932293;29;20399;-72
2021/12/05 19:58:13;;;;;;;28.20;11.17;;;;;;;;;;4932580;29;20035;-72
2021/12/05 20:00:40;;;;;;;26.53;11.17;;;;;;;;;;4932268;29;20027;-73
2021/12/05 20:03:07;;;;;;;34.27;14.20;;;;;;;;;;4932679;29;20470;-72
2021/12/05 20:05:35;;;;;;;29.07;12.60;;;;;;;;;;4932425;29;20032;-73
2021/12/05 20:08:02;;;;;;;50.93;19.50;;;;;;;;;;4933524;29;20032;-72
2021/12/05 20:10:31;;;;;;;50.60;17.93;;;;;;;;;;4932723;29;20082;-71
2021/12/05 20:12:58;;;;;;;42.50;16.50;;;;;;;;;;4933444;29;20392;-72
2021/12/05 20:15:24;;;;;;;45.33;17.03;;;;;;;;;;4916442;29;20514;-71
2021/12/05 20:17:50;;;;;;;36.10;16.40;;;;;;;;;;4932175;29;20034;-71
2021/12/05 20:20:20;;;;;;;42.03;17.33;;;;;;;;;;4933807;29;20034;-73
2021/12/05 20:22:46;;;;;;;41.83;16.03;;;;;;;;;;4932062;29;20061;-70
2021/12/05 20:25:17;;;;;;;40.93;18.60;;;;;;;;;;4933445;29;20027;-72
2021/12/05 20:27:43;;;;;;;48.03;18.50;;;;;;;;;;4933532;29;20024;-71
2021/12/05 20:30:21;;;;;;;63.20;20.83;;;;;;;;;;4932413;29;20036;-73
2021/12/05 20:32:47;;;;;;;44.30;18.83;;;;;;;;;;4932061;29;20098;-71
2021/12/05 20:35:15;;;;;;;53.73;19.27;;;;;;;;;;4932161;29;20131;-72
2021/12/05 20:37:44;;;;;;;43.80;19.50;;;;;;;;;;4933550;29;20392;-72
2021/12/05 20:40:16;;;;;;;52.03;18.93;;;;;;;;;;4932559;29;20586;-71